sensor_id;sensor_type;location;lat;lon;timestamp;pressure;altitude;pressure_sealevel;temperature;humidity
72961;BME280;61141;46.204;19.774;2023-06-14T00:02:12;100114.41;;;13.16;89.04
72961;BME280;61141;46.204;19.774;2023-06-14T00:05:15;100128.84;;;12.81;90.45
72961;BME280;61141;46.204;19.774;2023-06-14T00:08:18;100121.63;;;12.34;91.77
72961;BME280;61141;46.204;19.774;2023-06-14T00:11:21;100129.16;;;12.45;92.35
72961;BME280;61141;46.204;19.774;2023-06-14T00:14:24;100119.75;;;12.60;91.84
72961;BME280;61141;46.204;19.774;2023-06-14T00:17:27;100140.56;;;12.54;91.56
72961;BME280;61141;46.204;19.774;2023-06-14T00:20:34;100141.25;;;12.33;92.46
72961;BME280;61141;46.204;19.774;2023-06-14T00:23:37;100137.44;;;12.59;91.95
72961;BME280;61141;46.204;19.774;2023-06-14T00:26:40;100121.66;;;12.38;91.38
72961;BME280;61141;46.204;19.774;2023-06-14T00:29:43;100138.94;;;12.38;91.85
72961;BME280;61141;46.204;19.774;2023-06-14T00:32:46;100141.72;;;12.53;91.57
72961;BME280;61141;46.204;19.774;2023-06-14T00:35:49;100139.31;;;12.37;91.72
72961;BME280;61141;46.204;19.774;2023-06-14T00:38:55;100141.31;;;12.47;91.91
72961;BME280;61141;46.204;19.774;2023-06-14T00:41:58;100143.69;;;12.52;91.58
72961;BME280;61141;46.204;19.774;2023-06-14T00:45:02;100140.59;;;12.64;92.46
72961;BME280;61141;46.204;19.774;2023-06-14T00:48:05;100138.22;;;12.63;92.40
72961;BME280;61141;46.204;19.774;2023-06-14T00:51:10;100141.41;;;12.72;91.79
72961;BME280;61141;46.204;19.774;2023-06-14T00:54:13;100140.22;;;12.69;92.83
72961;BME280;61141;46.204;19.774;2023-06-14T00:57:18;100143.00;;;12.80;92.03
72961;BME280;61141;46.204;19.774;2023-06-14T01:00:22;100142.63;;;12.92;91.13
72961;BME280;61141;46.204;19.774;2023-06-14T01:03:24;100140.59;;;12.71;90.98
72961;BME280;61141;46.204;19.774;2023-06-14T01:16:20;100126.06;;;12.71;91.42
72961;BME280;61141;46.204;19.774;2023-06-14T01:19:23;100130.41;;;12.72;91.13
72961;BME280;61141;46.204;19.774;2023-06-14T01:22:28;100128.72;;;12.39;90.90
72961;BME280;61141;46.204;19.774;2023-06-14T01:25:31;100124.72;;;12.22;92.09
72961;BME280;61141;46.204;19.774;2023-06-14T01:28:34;100123.53;;;12.23;92.56
72961;BME280;61141;46.204;19.774;2023-06-14T01:31:38;100115.25;;;12.13;92.68
72961;BME280;61141;46.204;19.774;2023-06-14T01:34:44;100125.03;;;12.07;92.35
72961;BME280;61141;46.204;19.774;2023-06-14T01:37:48;100122.69;;;12.05;93.29
72961;BME280;61141;46.204;19.774;2023-06-14T01:40:53;100123.81;;;11.97;93.08
72961;BME280;61141;46.204;19.774;2023-06-14T01:43:58;100120.66;;;11.92;93.00
72961;BME280;61141;46.204;19.774;2023-06-14T01:47:01;100122.13;;;11.75;93.03
72961;BME280;61141;46.204;19.774;2023-06-14T01:50:05;100123.38;;;11.88;92.88
72961;BME280;61141;46.204;19.774;2023-06-14T01:53:08;100119.06;;;11.91;93.49
72961;BME280;61141;46.204;19.774;2023-06-14T01:56:12;100125.69;;;11.79;92.69
72961;BME280;61141;46.204;19.774;2023-06-14T01:59:14;100134.38;;;11.92;93.69
72961;BME280;61141;46.204;19.774;2023-06-14T02:02:18;100112.00;;;11.93;93.28
72961;BME280;61141;46.204;19.774;2023-06-14T02:05:22;100128.53;;;12.00;92.20
72961;BME280;61141;46.204;19.774;2023-06-14T02:08:25;100137.16;;;11.95;92.38
72961;BME280;61141;46.204;19.774;2023-06-14T02:11:28;100137.06;;;11.81;92.79
72961;BME280;61141;46.204;19.774;2023-06-14T02:14:32;100137.03;;;11.77;92.72
72961;BME280;61141;46.204;19.774;2023-06-14T02:17:36;100114.13;;;11.56;92.83
72961;BME280;61141;46.204;19.774;2023-06-14T02:20:41;100143.13;;;11.57;92.50
72961;BME280;61141;46.204;19.774;2023-06-14T02:23:43;100139.56;;;11.53;92.77
72961;BME280;61141;46.204;19.774;2023-06-14T02:26:46;100135.66;;;11.54;93.56
72961;BME280;61141;46.204;19.774;2023-06-14T02:29:49;100128.13;;;11.44;93.81
72961;BME280;61141;46.204;19.774;2023-06-14T02:32:52;100133.69;;;11.54;94.07
72961;BME280;61141;46.204;19.774;2023-06-14T02:35:55;100136.81;;;11.53;93.52
72961;BME280;61141;46.204;19.774;2023-06-14T02:38:59;100134.38;;;11.41;93.56
72961;BME280;61141;46.204;19.774;2023-06-14T02:42:02;100139.53;;;11.46;94.16
72961;BME280;61141;46.204;19.774;2023-06-14T02:45:05;100138.38;;;11.50;93.72
72961;BME280;61141;46.204;19.774;2023-06-14T02:48:08;100142.19;;;11.39;93.54
72961;BME280;61141;46.204;19.774;2023-06-14T02:51:11;100144.88;;;11.32;93.75
72961;BME280;61141;46.204;19.774;2023-06-14T02:54:15;100139.53;;;11.46;94.03
72961;BME280;61141;46.204;19.774;2023-06-14T02:57:18;100128.50;;;11.42;93.51
72961;BME280;61141;46.204;19.774;2023-06-14T03:00:21;100146.31;;;11.66;94.46
72961;BME280;61141;46.204;19.774;2023-06-14T03:03:24;100141.53;;;11.56;93.58
72961;BME280;61141;46.204;19.774;2023-06-14T03:06:29;100124.97;;;11.42;93.94
72961;BME280;61141;46.204;19.774;2023-06-14T03:09:33;100141.94;;;11.58;93.87
72961;BME280;61141;46.204;19.774;2023-06-14T03:12:36;100144.72;;;11.61;94.31
72961;BME280;61141;46.204;19.774;2023-06-14T03:15:40;100132.56;;;11.59;94.16
72961;BME280;61141;46.204;19.774;2023-06-14T03:18:44;100144.00;;;11.68;94.18
72961;BME280;61141;46.204;19.774;2023-06-14T03:21:47;100150.25;;;11.65;94.32
72961;BME280;61141;46.204;19.774;2023-06-14T03:24:50;100150.34;;;11.75;94.41
72961;BME280;61141;46.204;19.774;2023-06-14T03:27:54;100156.66;;;11.83;94.32
72961;BME280;61141;46.204;19.774;2023-06-14T03:30:58;100153.19;;;11.90;94.78
72961;BME280;61141;46.204;19.774;2023-06-14T03:34:01;100157.53;;;11.94;94.40
72961;BME280;61141;46.204;19.774;2023-06-14T03:37:05;100155.63;;;12.05;94.02
72961;BME280;61141;46.204;19.774;2023-06-14T03:40:08;100161.16;;;12.12;93.93
72961;BME280;61141;46.204;19.774;2023-06-14T03:43:12;100153.34;;;12.18;93.94
72961;BME280;61141;46.204;19.774;2023-06-14T03:46:16;100160.75;;;12.10;94.14
72961;BME280;61141;46.204;19.774;2023-06-14T03:49:18;100157.69;;;12.22;93.88
72961;BME280;61141;46.204;19.774;2023-06-14T03:52:21;100160.88;;;12.31;94.15
72961;BME280;61141;46.204;19.774;2023-06-14T03:55:25;100171.12;;;12.42;94.53
72961;BME280;61141;46.204;19.774;2023-06-14T03:58:34;100164.88;;;12.48;94.05
72961;BME280;61141;46.204;19.774;2023-06-14T04:01:36;100182.97;;;12.60;94.21
72961;BME280;61141;46.204;19.774;2023-06-14T04:04:40;100179.13;;;12.85;93.80
72961;BME280;61141;46.204;19.774;2023-06-14T04:07:47;100178.38;;;12.99;93.68
72961;BME280;61141;46.204;19.774;2023-06-14T04:10:51;100182.78;;;13.21;92.50
72961;BME280;61141;46.204;19.774;2023-06-14T04:13:54;100174.53;;;13.14;92.59
72961;BME280;61141;46.204;19.774;2023-06-14T04:16:59;100196.16;;;13.33;93.03
72961;BME280;61141;46.204;19.774;2023-06-14T04:20:02;100172.59;;;13.43;92.28
72961;BME280;61141;46.204;19.774;2023-06-14T04:23:15;100196.19;;;13.83;91.21
72961;BME280;61141;46.204;19.774;2023-06-14T04:26:21;100198.91;;;14.11;91.26
72961;BME280;61141;46.204;19.774;2023-06-14T04:29:29;100197.69;;;14.23;91.46
72961;BME280;61141;46.204;19.774;2023-06-14T04:32:33;100206.69;;;14.48;90.75
72961;BME280;61141;46.204;19.774;2023-06-14T04:35:41;100204.28;;;14.67;89.03
72961;BME280;61141;46.204;19.774;2023-06-14T04:38:44;100204.16;;;14.89;89.50
72961;BME280;61141;46.204;19.774;2023-06-14T04:41:49;100202.50;;;15.09;89.78
72961;BME280;61141;46.204;19.774;2023-06-14T04:44:59;100206.31;;;15.29;89.51
72961;BME280;61141;46.204;19.774;2023-06-14T04:48:03;100208.94;;;15.50;88.56
72961;BME280;61141;46.204;19.774;2023-06-14T04:51:08;100205.28;;;15.67;86.01
72961;BME280;61141;46.204;19.774;2023-06-14T04:54:11;100204.28;;;15.92;85.23
72961;BME280;61141;46.204;19.774;2023-06-14T04:57:18;100182.97;;;15.88;82.65
72961;BME280;61141;46.204;19.774;2023-06-14T05:00:25;100199.16;;;16.31;82.88
72961;BME280;61141;46.204;19.774;2023-06-14T05:03:27;100207.16;;;16.59;81.17
72961;BME280;61141;46.204;19.774;2023-06-14T05:06:33;100209.63;;;16.84;79.71
72961;BME280;61141;46.204;19.774;2023-06-14T05:09:36;100211.16;;;16.85;79.68
72961;BME280;61141;46.204;19.774;2023-06-14T05:12:40;100215.72;;;16.68;79.96
72961;BME280;61141;46.204;19.774;2023-06-14T05:15:43;100202.66;;;16.72;80.33
72961;BME280;61141;46.204;19.774;2023-06-14T05:18:47;100212.22;;;16.98;79.97
72961;BME280;61141;46.204;19.774;2023-06-14T05:21:50;100203.00;;;17.04;79.00
72961;BME280;61141;46.204;19.774;2023-06-14T05:24:54;100208.69;;;16.94;79.78
72961;BME280;61141;46.204;19.774;2023-06-14T05:27:57;100216.78;;;17.38;78.17
72961;BME280;61141;46.204;19.774;2023-06-14T05:31:00;100214.97;;;17.55;77.77
72961;BME280;61141;46.204;19.774;2023-06-14T05:34:03;100214.84;;;17.62;77.71
72961;BME280;61141;46.204;19.774;2023-06-14T05:37:07;100201.06;;;17.82;76.83
72961;BME280;61141;46.204;19.774;2023-06-14T05:40:10;100221.38;;;17.75;77.40
72961;BME280;61141;46.204;19.774;2023-06-14T05:43:13;100217.34;;;18.03;77.00
72961;BME280;61141;46.204;19.774;2023-06-14T05:46:15;100234.97;;;18.36;75.27
72961;BME280;61141;46.204;19.774;2023-06-14T05:49:24;100223.47;;;18.14;75.76
72961;BME280;61141;46.204;19.774;2023-06-14T05:52:27;100227.28;;;18.66;74.83
72961;BME280;61141;46.204;19.774;2023-06-14T05:55:31;100234.09;;;18.62;75.33
72961;BME280;61141;46.204;19.774;2023-06-14T05:58:33;100218.56;;;18.84;73.65
72961;BME280;61141;46.204;19.774;2023-06-14T06:01:36;100224.28;;;19.32;72.34
72961;BME280;61141;46.204;19.774;2023-06-14T06:04:40;100208.56;;;19.06;71.39
72961;BME280;61141;46.204;19.774;2023-06-14T06:07:43;100222.84;;;19.60;70.85
72961;BME280;61141;46.204;19.774;2023-06-14T06:10:48;100207.56;;;19.68;69.06
72961;BME280;61141;46.204;19.774;2023-06-14T06:13:51;100231.62;;;20.07;67.62
72961;BME280;61141;46.204;19.774;2023-06-14T06:16:54;100232.28;;;20.11;67.66
72961;BME280;61141;46.204;19.774;2023-06-14T06:19:57;100230.63;;;20.30;64.85
72961;BME280;61141;46.204;19.774;2023-06-14T06:23:00;100232.78;;;20.55;63.67
72961;BME280;61141;46.204;19.774;2023-06-14T06:26:03;100223.13;;;20.72;63.67
72961;BME280;61141;46.204;19.774;2023-06-14T06:29:06;100231.59;;;20.68;62.43
72961;BME280;61141;46.204;19.774;2023-06-14T06:32:09;100229.88;;;20.29;64.13
72961;BME280;61141;46.204;19.774;2023-06-14T06:35:13;100235.62;;;19.90;62.97
72961;BME280;61141;46.204;19.774;2023-06-14T06:38:16;100235.41;;;20.45;62.40
72961;BME280;61141;46.204;19.774;2023-06-14T06:41:21;100242.72;;;20.39;64.47
72961;BME280;61141;46.204;19.774;2023-06-14T06:44:24;100237.44;;;20.99;61.36
72961;BME280;61141;46.204;19.774;2023-06-14T06:47:27;100228.38;;;21.11;60.47
72961;BME280;61141;46.204;19.774;2023-06-14T06:50:30;100222.12;;;21.32;59.12
72961;BME280;61141;46.204;19.774;2023-06-14T06:53:33;100232.53;;;21.32;58.68
72961;BME280;61141;46.204;19.774;2023-06-14T06:56:47;100238.75;;;21.23;58.27
72961;BME280;61141;46.204;19.774;2023-06-14T06:59:50;100231.41;;;20.88;59.95
72961;BME280;61141;46.204;19.774;2023-06-14T07:02:53;100210.53;;;21.46;57.16
72961;BME280;61141;46.204;19.774;2023-06-14T07:05:58;100219.97;;;20.98;57.25
72961;BME280;61141;46.204;19.774;2023-06-14T07:09:02;100232.03;;;21.71;56.46
72961;BME280;61141;46.204;19.774;2023-06-14T07:12:07;100238.31;;;21.88;54.05
72961;BME280;61141;46.204;19.774;2023-06-14T07:15:10;100232.16;;;21.93;54.45
72961;BME280;61141;46.204;19.774;2023-06-14T07:18:14;100243.34;;;21.67;56.21
72961;BME280;61141;46.204;19.774;2023-06-14T07:21:18;100233.72;;;21.94;54.88
72961;BME280;61141;46.204;19.774;2023-06-14T07:24:21;100242.66;;;22.36;53.87
72961;BME280;61141;46.204;19.774;2023-06-14T07:27:24;100245.34;;;21.92;54.74
72961;BME280;61141;46.204;19.774;2023-06-14T07:30:27;100246.87;;;22.40;52.06
72961;BME280;61141;46.204;19.774;2023-06-14T07:33:32;100247.16;;;22.20;50.59
72961;BME280;61141;46.204;19.774;2023-06-14T07:36:35;100245.34;;;22.39;51.82
72961;BME280;61141;46.204;19.774;2023-06-14T07:39:39;100245.53;;;22.45;51.39
72961;BME280;61141;46.204;19.774;2023-06-14T07:42:42;100238.56;;;23.05;49.91
72961;BME280;61141;46.204;19.774;2023-06-14T07:45:44;100242.97;;;22.94;47.76
72961;BME280;61141;46.204;19.774;2023-06-14T07:49:07;100249.75;;;22.84;46.88
72961;BME280;61141;46.204;19.774;2023-06-14T07:52:10;100255.53;;;23.20;48.99
72961;BME280;61141;46.204;19.774;2023-06-14T07:55:14;100245.44;;;22.92;47.49
72961;BME280;61141;46.204;19.774;2023-06-14T07:58:18;100248.97;;;23.66;45.92
72961;BME280;61141;46.204;19.774;2023-06-14T08:01:21;100248.09;;;23.87;44.88
72961;BME280;61141;46.204;19.774;2023-06-14T08:04:27;100242.69;;;23.53;43.29
72961;BME280;61141;46.204;19.774;2023-06-14T08:07:29;100253.56;;;23.51;42.62
72961;BME280;61141;46.204;19.774;2023-06-14T08:10:33;100234.34;;;23.62;42.72
72961;BME280;61141;46.204;19.774;2023-06-14T08:13:35;100237.19;;;23.80;39.06
72961;BME280;61141;46.204;19.774;2023-06-14T08:16:38;100239.69;;;23.87;35.68
72961;BME280;61141;46.204;19.774;2023-06-14T08:19:42;100255.88;;;23.92;33.32
72961;BME280;61141;46.204;19.774;2023-06-14T08:22:44;100251.97;;;23.90;35.28
72961;BME280;61141;46.204;19.774;2023-06-14T08:25:49;100260.50;;;23.16;33.50
72961;BME280;61141;46.204;19.774;2023-06-14T08:28:52;100260.22;;;23.23;34.68
72961;BME280;61141;46.204;19.774;2023-06-14T08:31:54;100264.00;;;24.09;35.65
72961;BME280;61141;46.204;19.774;2023-06-14T08:34:57;100258.38;;;23.90;34.53
72961;BME280;61141;46.204;19.774;2023-06-14T08:38:07;100265.22;;;23.98;34.68
72961;BME280;61141;46.204;19.774;2023-06-14T08:41:12;100260.59;;;24.14;34.94
72961;BME280;61141;46.204;19.774;2023-06-14T08:44:19;100268.38;;;24.10;33.89
72961;BME280;61141;46.204;19.774;2023-06-14T08:47:23;100278.22;;;23.74;33.81
72961;BME280;61141;46.204;19.774;2023-06-14T08:50:29;100277.47;;;24.41;34.43
72961;BME280;61141;46.204;19.774;2023-06-14T08:53:36;100274.34;;;24.75;33.12
72961;BME280;61141;46.204;19.774;2023-06-14T08:56:44;100269.66;;;24.27;33.72
72961;BME280;61141;46.204;19.774;2023-06-14T08:59:49;100273.78;;;23.55;32.45
72961;BME280;61141;46.204;19.774;2023-06-14T09:02:54;100265.13;;;24.20;33.31
72961;BME280;61141;46.204;19.774;2023-06-14T09:06:01;100271.84;;;23.74;34.18
72961;BME280;61141;46.204;19.774;2023-06-14T09:09:04;100267.50;;;24.22;33.60
72961;BME280;61141;46.204;19.774;2023-06-14T09:12:09;100268.13;;;24.53;33.87
72961;BME280;61141;46.204;19.774;2023-06-14T09:15:13;100268.28;;;24.95;33.44
72961;BME280;61141;46.204;19.774;2023-06-14T09:18:17;100272.19;;;24.79;33.28
72961;BME280;61141;46.204;19.774;2023-06-14T09:21:19;100271.88;;;24.68;34.00
72961;BME280;61141;46.204;19.774;2023-06-14T09:24:24;100269.03;;;24.23;33.77
72961;BME280;61141;46.204;19.774;2023-06-14T09:27:29;100272.47;;;25.08;34.41
72961;BME280;61141;46.204;19.774;2023-06-14T09:30:38;100269.44;;;25.39;33.72
72961;BME280;61141;46.204;19.774;2023-06-14T09:33:42;100272.16;;;24.97;33.40
72961;BME280;61141;46.204;19.774;2023-06-14T09:36:50;100270.47;;;24.91;33.33
72961;BME280;61141;46.204;19.774;2023-06-14T09:39:54;100279.34;;;24.62;33.57
72961;BME280;61141;46.204;19.774;2023-06-14T09:42:57;100267.63;;;25.09;32.48
72961;BME280;61141;46.204;19.774;2023-06-14T09:46:01;100270.56;;;25.24;31.84
72961;BME280;61141;46.204;19.774;2023-06-14T09:49:05;100265.47;;;24.40;33.16
72961;BME280;61141;46.204;19.774;2023-06-14T09:52:15;100267.81;;;24.60;33.07
72961;BME280;61141;46.204;19.774;2023-06-14T09:55:19;100274.66;;;24.59;32.76
72961;BME280;61141;46.204;19.774;2023-06-14T09:58:23;100268.75;;;24.84;32.99
72961;BME280;61141;46.204;19.774;2023-06-14T10:01:30;100260.81;;;25.52;32.96
72961;BME280;61141;46.204;19.774;2023-06-14T10:04:34;100257.97;;;25.70;32.02
72961;BME280;61141;46.204;19.774;2023-06-14T10:07:48;100261.66;;;25.34;32.50
72961;BME280;61141;46.204;19.774;2023-06-14T10:10:58;100258.78;;;24.56;33.32
72961;BME280;61141;46.204;19.774;2023-06-14T10:14:02;100260.06;;;25.51;32.31
72961;BME280;61141;46.204;19.774;2023-06-14T10:17:08;100261.84;;;25.96;32.44
72961;BME280;61141;46.204;19.774;2023-06-14T10:23:23;100257.84;;;24.59;32.66
72961;BME280;61141;46.204;19.774;2023-06-14T10:26:27;100249.00;;;24.51;33.57
72961;BME280;61141;46.204;19.774;2023-06-14T10:29:30;100239.34;;;25.40;33.29
72961;BME280;61141;46.204;19.774;2023-06-14T10:33:05;100240.81;;;25.68;33.95
72961;BME280;61141;46.204;19.774;2023-06-14T10:36:26;100246.41;;;26.01;33.20
72961;BME280;61141;46.204;19.774;2023-06-14T10:39:43;100246.12;;;25.66;31.81
72961;BME280;61141;46.204;19.774;2023-06-14T10:42:51;100242.66;;;26.04;31.37
72961;BME280;61141;46.204;19.774;2023-06-14T10:46:19;100232.81;;;26.47;31.77
72961;BME280;61141;46.204;19.774;2023-06-14T10:49:43;100234.53;;;26.30;32.37
72961;BME280;61141;46.204;19.774;2023-06-14T10:52:46;100223.56;;;26.70;31.80
72961;BME280;61141;46.204;19.774;2023-06-14T10:55:49;100235.88;;;26.72;31.29
72961;BME280;61141;46.204;19.774;2023-06-14T10:58:52;100238.34;;;27.23;31.07
72961;BME280;61141;46.204;19.774;2023-06-14T11:02:10;100231.94;;;25.93;31.34
72961;BME280;61141;46.204;19.774;2023-06-14T11:05:27;100236.22;;;24.96;32.26
72961;BME280;61141;46.204;19.774;2023-06-14T11:08:51;100225.78;;;25.47;31.40
72961;BME280;61141;46.204;19.774;2023-06-14T11:12:00;100226.81;;;25.92;30.73
72961;BME280;61141;46.204;19.774;2023-06-14T11:15:05;100217.16;;;25.60;32.19
72961;BME280;61141;46.204;19.774;2023-06-14T11:18:08;100224.16;;;26.59;31.73
72961;BME280;61141;46.204;19.774;2023-06-14T11:21:17;100210.41;;;26.76;31.15
72961;BME280;61141;46.204;19.774;2023-06-14T11:24:23;100215.69;;;26.98;31.94
72961;BME280;61141;46.204;19.774;2023-06-14T11:27:27;100220.16;;;26.66;31.59
72961;BME280;61141;46.204;19.774;2023-06-14T11:30:29;100212.59;;;26.43;31.54
72961;BME280;61141;46.204;19.774;2023-06-14T11:33:33;100214.00;;;27.20;30.92
72961;BME280;61141;46.204;19.774;2023-06-14T11:36:38;100214.69;;;26.86;31.32
72961;BME280;61141;46.204;19.774;2023-06-14T11:39:44;100208.09;;;27.48;30.31
72961;BME280;61141;46.204;19.774;2023-06-14T11:42:47;100207.94;;;27.57;30.92
72961;BME280;61141;46.204;19.774;2023-06-14T11:45:50;100213.87;;;27.59;29.85
72961;BME280;61141;46.204;19.774;2023-06-14T11:49:09;100204.91;;;27.75;30.83
72961;BME280;61141;46.204;19.774;2023-06-14T11:52:13;100204.19;;;27.80;29.07
72961;BME280;61141;46.204;19.774;2023-06-14T11:55:16;100190.34;;;27.62;29.83
72961;BME280;61141;46.204;19.774;2023-06-14T11:58:20;100195.81;;;27.85;29.08
72961;BME280;61141;46.204;19.774;2023-06-14T12:01:23;100182.59;;;27.57;29.98
72961;BME280;61141;46.204;19.774;2023-06-14T12:04:27;100196.75;;;28.17;30.23
72961;BME280;61141;46.204;19.774;2023-06-14T12:07:30;100194.62;;;27.92;29.60
72961;BME280;61141;46.204;19.774;2023-06-14T12:10:41;100195.66;;;27.25;28.87
72961;BME280;61141;46.204;19.774;2023-06-14T12:13:48;100192.56;;;27.23;27.73
72961;BME280;61141;46.204;19.774;2023-06-14T12:16:51;100187.16;;;27.89;28.12
72961;BME280;61141;46.204;19.774;2023-06-14T12:19:54;100184.81;;;28.22;27.87
72961;BME280;61141;46.204;19.774;2023-06-14T12:23:03;100198.00;;;27.96;28.06
72961;BME280;61141;46.204;19.774;2023-06-14T12:26:06;100196.00;;;28.17;28.18
72961;BME280;61141;46.204;19.774;2023-06-14T12:29:13;100190.66;;;28.65;27.88
72961;BME280;61141;46.204;19.774;2023-06-14T12:32:16;100181.09;;;27.96;28.67
72961;BME280;61141;46.204;19.774;2023-06-14T12:35:19;100188.41;;;28.48;27.64
72961;BME280;61141;46.204;19.774;2023-06-14T12:38:22;100181.88;;;27.76;27.97
72961;BME280;61141;46.204;19.774;2023-06-14T12:41:25;100173.59;;;27.03;28.97
72961;BME280;61141;46.204;19.774;2023-06-14T12:44:29;100177.75;;;27.92;28.70
72961;BME280;61141;46.204;19.774;2023-06-14T12:47:32;100167.28;;;27.58;29.19
72961;BME280;61141;46.204;19.774;2023-06-14T12:50:35;100170.28;;;28.29;28.21
72961;BME280;61141;46.204;19.774;2023-06-14T12:53:38;100165.91;;;28.54;27.68
72961;BME280;61141;46.204;19.774;2023-06-14T12:56:41;100163.34;;;28.76;28.15
72961;BME280;61141;46.204;19.774;2023-06-14T12:59:45;100162.66;;;28.35;27.92
72961;BME280;61141;46.204;19.774;2023-06-14T13:02:48;100163.13;;;28.34;28.36
72961;BME280;61141;46.204;19.774;2023-06-14T13:05:51;100157.34;;;28.63;28.00
72961;BME280;61141;46.204;19.774;2023-06-14T13:08:54;100155.72;;;28.82;27.52
72961;BME280;61141;46.204;19.774;2023-06-14T13:12:00;100140.19;;;27.25;30.05
72961;BME280;61141;46.204;19.774;2023-06-14T13:15:04;100151.88;;;27.53;28.70
72961;BME280;61141;46.204;19.774;2023-06-14T13:18:07;100154.00;;;26.94;29.81
72961;BME280;61141;46.204;19.774;2023-06-14T13:21:10;100155.78;;;26.39;30.66
72961;BME280;61141;46.204;19.774;2023-06-14T13:24:13;100157.94;;;26.58;30.72
72961;BME280;61141;46.204;19.774;2023-06-14T13:27:16;100135.37;;;26.67;30.39
72961;BME280;61141;46.204;19.774;2023-06-14T13:30:19;100155.87;;;27.47;30.38
72961;BME280;61141;46.204;19.774;2023-06-14T13:33:22;100152.78;;;27.45;28.73
72961;BME280;61141;46.204;19.774;2023-06-14T13:36:26;100154.22;;;27.75;28.21
72961;BME280;61141;46.204;19.774;2023-06-14T13:39:29;100155.06;;;27.81;27.23
72961;BME280;61141;46.204;19.774;2023-06-14T13:42:33;100144.53;;;27.41;28.77
72961;BME280;61141;46.204;19.774;2023-06-14T13:45:35;100139.84;;;27.53;28.43
72961;BME280;61141;46.204;19.774;2023-06-14T13:48:38;100125.59;;;27.62;28.30
72961;BME280;61141;46.204;19.774;2023-06-14T13:51:41;100133.47;;;28.38;27.05
72961;BME280;61141;46.204;19.774;2023-06-14T13:54:44;100130.72;;;28.70;26.73
72961;BME280;61141;46.204;19.774;2023-06-14T13:57:50;100126.16;;;29.40;26.29
72961;BME280;61141;46.204;19.774;2023-06-14T14:00:53;100128.28;;;29.20;27.27
72961;BME280;61141;46.204;19.774;2023-06-14T14:03:57;100132.31;;;29.07;26.82
72961;BME280;61141;46.204;19.774;2023-06-14T14:07:02;100133.03;;;28.45;28.00
72961;BME280;61141;46.204;19.774;2023-06-14T14:10:06;100133.25;;;28.16;28.26
72961;BME280;61141;46.204;19.774;2023-06-14T14:13:09;100136.19;;;28.79;27.90
72961;BME280;61141;46.204;19.774;2023-06-14T14:16:13;100127.47;;;29.45;27.11
72961;BME280;61141;46.204;19.774;2023-06-14T14:19:16;100136.19;;;29.47;27.05
72961;BME280;61141;46.204;19.774;2023-06-14T14:22:19;100130.47;;;28.99;27.26
72961;BME280;61141;46.204;19.774;2023-06-14T14:25:21;100140.69;;;28.65;28.06
72961;BME280;61141;46.204;19.774;2023-06-14T14:28:24;100142.66;;;28.85;27.17
72961;BME280;61141;46.204;19.774;2023-06-14T14:31:28;100140.66;;;29.22;26.67
72961;BME280;61141;46.204;19.774;2023-06-14T14:34:31;100128.66;;;29.27;26.51
72961;BME280;61141;46.204;19.774;2023-06-14T14:37:34;100144.53;;;28.93;26.62
72961;BME280;61141;46.204;19.774;2023-06-14T14:40:37;100139.44;;;29.03;27.34
72961;BME280;61141;46.204;19.774;2023-06-14T14:43:40;100150.94;;;28.94;27.78
72961;BME280;61141;46.204;19.774;2023-06-14T14:46:43;100139.84;;;29.16;26.73
72961;BME280;61141;46.204;19.774;2023-06-14T14:49:46;100151.00;;;28.99;26.79
72961;BME280;61141;46.204;19.774;2023-06-14T14:52:49;100141.25;;;28.69;26.87
72961;BME280;61141;46.204;19.774;2023-06-14T14:55:52;100142.00;;;29.01;26.84
72961;BME280;61141;46.204;19.774;2023-06-14T14:58:55;100112.13;;;28.83;26.45
72961;BME280;61141;46.204;19.774;2023-06-14T15:01:58;100123.19;;;28.35;26.41
72961;BME280;61141;46.204;19.774;2023-06-14T15:05:01;100125.97;;;28.30;26.48
72961;BME280;61141;46.204;19.774;2023-06-14T15:08:05;100101.97;;;28.40;26.43
72961;BME280;61141;46.204;19.774;2023-06-14T15:11:14;100110.84;;;27.47;27.74
72961;BME280;61141;46.204;19.774;2023-06-14T15:14:16;100106.69;;;26.93;28.03
72961;BME280;61141;46.204;19.774;2023-06-14T15:17:20;100113.12;;;28.03;27.18
72961;BME280;61141;46.204;19.774;2023-06-14T15:20:23;100109.84;;;27.90;27.29
72961;BME280;61141;46.204;19.774;2023-06-14T15:23:26;100102.06;;;28.25;27.37
72961;BME280;61141;46.204;19.774;2023-06-14T15:26:29;100109.31;;;28.32;27.25
72961;BME280;61141;46.204;19.774;2023-06-14T15:29:32;100105.91;;;28.02;27.11
72961;BME280;61141;46.204;19.774;2023-06-14T15:32:34;100110.09;;;27.86;27.77
72961;BME280;61141;46.204;19.774;2023-06-14T15:35:37;100112.56;;;28.50;26.91
72961;BME280;61141;46.204;19.774;2023-06-14T15:38:43;100115.47;;;27.90;27.40
72961;BME280;61141;46.204;19.774;2023-06-14T15:41:46;100112.75;;;27.75;27.64
72961;BME280;61141;46.204;19.774;2023-06-14T15:44:49;100101.75;;;27.57;27.76
72961;BME280;61141;46.204;19.774;2023-06-14T15:47:52;100109.84;;;27.50;28.05
72961;BME280;61141;46.204;19.774;2023-06-14T15:50:54;100115.78;;;26.73;29.01
72961;BME280;61141;46.204;19.774;2023-06-14T15:53:57;100117.75;;;27.86;28.10
72961;BME280;61141;46.204;19.774;2023-06-14T15:57:00;100118.25;;;27.64;27.35
72961;BME280;61141;46.204;19.774;2023-06-14T16:00:04;100122.72;;;27.96;27.14
72961;BME280;61141;46.204;19.774;2023-06-14T16:03:07;100114.56;;;27.58;27.34
72961;BME280;61141;46.204;19.774;2023-06-14T16:06:10;100121.97;;;28.16;26.69